createdAt,value
2022-12-08T08:32:41.773Z,98023.56
2022-12-08T08:37:51.021Z,98012.88
2022-12-08T08:40:18.681Z,98023.94
2022-12-08T08:46:49.143Z,98021.38
2022-12-08T08:49:16.549Z,98031.81
2022-12-08T08:51:43.966Z,98031.00
2022-12-08T08:54:11.462Z,98023.81
2022-12-08T08:56:38.791Z,98019.81
2022-12-08T08:59:06.196Z,98022.53
2022-12-08T09:01:34.399Z,98016.13
2022-12-08T09:04:02.021Z,98016.13
2022-12-08T09:06:29.603Z,98005.84
2022-12-08T09:08:57.290Z,98008.53
2022-12-08T09:11:24.673Z,98014.09
2022-12-08T09:13:54.210Z,98006.28
2022-12-08T09:16:22.886Z,97995.66
2022-12-08T09:18:50.549Z,97994.91
2022-12-08T09:21:24.219Z,97991.13
2022-12-08T09:23:57.549Z,97984.88
2022-12-08T09:26:27.302Z,97996.56
2022-12-08T09:28:56.954Z,97999.50
2022-12-08T09:31:25.289Z,98001.31
2022-12-08T09:33:52.822Z,98001.66
2022-12-08T09:36:21.595Z,97997.63
2022-12-08T09:38:51.069Z,97995.75
2022-12-08T09:41:43.292Z,97998.28
2022-12-08T09:45:02.530Z,97987.31
2022-12-08T09:47:44.174Z,97998.72
2022-12-08T09:50:31.046Z,97992.00
2022-12-08T09:54:07.937Z,97984.06
2022-12-08T09:56:37.813Z,97986.03
2022-12-08T09:59:32.946Z,97980.28
2022-12-08T10:02:09.680Z,97976.69
2022-12-08T10:04:38.820Z,97974.88
2022-12-08T10:07:54.957Z,97963.63
2022-12-08T10:10:57.345Z,97966.03
2022-12-08T10:14:14.450Z,97963.44
2022-12-08T10:16:48.556Z,97953.13
2022-12-08T10:19:25.420Z,97949.28
2022-12-08T10:21:54.407Z,97943.09
2022-12-08T10:24:41.723Z,97941.03
2022-12-08T10:27:13.468Z,97937.09
2022-12-08T10:29:41.314Z,97933.53
2022-12-08T10:32:24.429Z,97927.66
2022-12-08T10:35:12.258Z,97932.53
2022-12-08T10:37:40.989Z,97918.91
2022-12-08T10:40:18.302Z,97917.94
2022-12-08T10:42:56.406Z,97913.97
2022-12-08T10:45:37.299Z,97904.53
2022-12-08T10:48:27.842Z,97904.19
2022-12-08T10:50:59.221Z,97902.25
2022-12-08T10:53:34.162Z,97906.22
2022-12-08T10:56:04.420Z,97893.47
2022-12-08T10:58:44.918Z,97892.69
2022-12-08T11:01:25.543Z,97893.63
2022-12-08T11:04:01.735Z,97893.91
2022-12-08T11:06:37.649Z,97883.06
2022-12-08T11:09:18.110Z,97890.94
2022-12-08T11:11:55.326Z,97884.94
2022-12-08T11:14:42.612Z,97886.28
2022-12-08T11:17:21.638Z,97877.38
2022-12-08T11:20:10.788Z,97863.81
2022-12-08T11:22:53.186Z,97859.03
2022-12-08T11:25:28.508Z,97862.06
2022-12-08T11:28:01.781Z,97848.03
2022-12-08T11:30:47.729Z,97857.66
2022-12-08T11:33:29.153Z,97861.44
2022-12-08T11:36:09.104Z,97856.13
2022-12-08T11:38:47.213Z,97855.00
2022-12-08T11:41:26.168Z,97844.41
2022-12-08T11:44:41.037Z,97840.31
2022-12-08T11:47:28.850Z,97842.25
2022-12-08T11:50:32.600Z,97826.44
2022-12-08T11:53:01.687Z,97823.53
2022-12-08T11:55:55.148Z,97831.22
2022-12-08T11:58:56.426Z,97827.94
2022-12-08T12:01:26.812Z,97820.09
2022-12-08T12:05:01.072Z,97822.88
2022-12-08T12:08:03.754Z,97814.56
2022-12-08T12:10:43.110Z,97812.72
2022-12-08T12:13:58.387Z,97804.59
2022-12-08T12:16:55.521Z,97804.53
2022-12-08T12:19:24.330Z,97804.81
2022-12-08T12:22:15.652Z,97801.00
2022-12-08T12:24:49.237Z,97810.09
2022-12-08T12:27:29.765Z,97804.38
2022-12-08T12:30:04.177Z,97799.94
2022-12-08T12:32:59.914Z,97808.72
2022-12-08T12:35:47.941Z,97789.38
2022-12-08T12:39:08.612Z,97804.19
2022-12-08T12:41:47.850Z,97799.28
2022-12-08T12:44:15.058Z,97804.44
2022-12-08T12:46:51.108Z,97804.56
2022-12-08T12:49:40.154Z,97797.81
2022-12-08T12:52:10.182Z,97798.16
2022-12-08T12:54:42.270Z,97796.94
2022-12-08T12:57:09.460Z,97792.53
2022-12-08T13:00:05.368Z,97784.00
2022-12-08T13:02:46.060Z,97782.47
2022-12-08T13:05:13.275Z,97787.78
2022-12-08T13:08:07.066Z,97777.09
2022-12-08T13:10:48.622Z,97785.69
2022-12-08T13:13:19.031Z,97782.53
2022-12-08T13:16:24.829Z,97779.47
2022-12-08T13:19:02.480Z,97778.59
2022-12-08T13:21:39.030Z,97797.56
2022-12-08T13:24:24.364Z,97790.44
2022-12-08T13:27:11.496Z,97784.75
2022-12-08T13:29:40.113Z,97780.75
2022-12-08T13:32:10.323Z,97780.19
2022-12-08T13:35:11.882Z,97778.16
2022-12-08T13:37:54.862Z,97769.59
2022-12-08T13:40:30.266Z,97762.31
2022-12-08T13:43:55.630Z,97764.84
2022-12-08T13:47:09.806Z,97769.69
2022-12-08T13:51:07.037Z,97769.94
2022-12-08T13:56:59.645Z,97754.31
2022-12-08T13:58:47.417Z,97762.75
2022-12-08T14:01:25.022Z,97753.91
2022-12-08T14:04:34.127Z,97760.69
2022-12-08T14:06:59.404Z,97748.34
2022-12-08T14:09:36.414Z,97747.44
2022-12-08T14:12:26.464Z,97744.25
2022-12-08T14:15:04.395Z,97751.59
2022-12-08T14:17:33.793Z,97758.00
2022-12-08T14:20:57.920Z,97755.16
2022-12-08T14:23:22.847Z,97768.66
2022-12-08T14:25:50.307Z,97749.16
2022-12-08T14:28:18.050Z,97753.72
2022-12-08T14:30:45.571Z,97769.69
2022-12-08T14:33:17.514Z,97766.78
2022-12-08T14:35:54.931Z,97763.16
2022-12-08T14:38:26.051Z,97749.97
2022-12-08T14:41:08.753Z,97760.31
2022-12-08T14:43:36.496Z,97758.25
2022-12-08T14:46:22.963Z,97765.75
2022-12-08T14:48:50.516Z,97759.84
2022-12-08T14:51:20.937Z,97763.25
2022-12-08T14:54:13.375Z,97764.13
2022-12-08T14:56:56.097Z,97768.53
2022-12-08T14:59:39.148Z,97762.31
2022-12-08T15:02:27.128Z,97766.31
2022-12-08T15:05:16.011Z,97758.56
2022-12-08T15:07:54.016Z,97761.31
2022-12-08T15:10:31.967Z,97762.66
2022-12-08T15:13:10.345Z,97776.13
2022-12-08T15:15:57.767Z,97767.69
2022-12-08T15:18:41.164Z,97757.19
2022-12-08T15:21:13.015Z,97756.28
2022-12-08T15:23:50.375Z,97747.38
2022-12-08T15:26:27.412Z,97752.00
2022-12-08T15:28:55.830Z,97744.56
2022-12-08T15:31:23.331Z,97739.81
2022-12-08T15:33:50.892Z,97739.00
2022-12-08T15:36:18.220Z,97735.34
2022-12-08T15:38:45.632Z,97732.00
2022-12-08T15:41:15.212Z,97722.56
2022-12-08T15:43:43.034Z,97719.69
2022-12-08T15:46:10.555Z,97709.53
2022-12-08T15:48:38.450Z,97706.88
2022-12-08T15:51:05.859Z,97717.78
2022-12-08T15:53:33.290Z,97709.22
2022-12-08T15:58:55.609Z,97709.84
2022-12-08T16:01:24.886Z,97697.50
2022-12-08T16:09:47.899Z,97713.22
2022-12-08T16:15:59.017Z,97699.16
2022-12-08T16:18:34.484Z,97687.28
2022-12-08T16:21:22.857Z,97701.03
2022-12-08T16:23:49.934Z,97688.81
2022-12-08T16:29:20.781Z,97701.66
2022-12-08T16:31:48.474Z,97686.75
2022-12-08T16:34:16.224Z,97689.47
2022-12-08T16:36:43.665Z,97696.38
2022-12-08T16:39:14.622Z,97691.88
2022-12-08T16:42:02.346Z,97697.16
2022-12-08T16:44:30.051Z,97691.19
2022-12-08T16:46:57.523Z,97694.06
2022-12-08T16:49:25.067Z,97692.06
2022-12-08T16:51:52.524Z,97694.16
2022-12-08T16:54:19.910Z,97704.19
2022-12-08T16:56:47.326Z,97707.53
2022-12-08T16:59:14.756Z,97705.66
2022-12-08T17:01:42.164Z,97699.84
2022-12-08T17:06:58.178Z,97702.44
2022-12-08T17:09:28.546Z,97700.63
2022-12-08T17:12:01.824Z,97703.00
2022-12-08T17:14:35.501Z,97703.00
2022-12-08T17:17:03.018Z,97712.03
2022-12-08T17:19:30.441Z,97712.84
2022-12-08T17:21:57.881Z,97707.75
2022-12-08T17:24:29.027Z,97708.78
2022-12-08T17:26:58.817Z,97701.84
2022-12-08T17:29:26.236Z,97703.75
2022-12-08T17:31:53.729Z,97706.94
2022-12-08T17:34:21.208Z,97716.28
2022-12-08T17:36:48.619Z,97710.88
2022-12-08T17:39:18.764Z,97714.34
2022-12-08T17:41:47.938Z,97705.41
2022-12-08T17:44:19.431Z,97711.28
2022-12-08T17:46:52.610Z,97706.38
2022-12-08T17:49:29.629Z,97686.53
2022-12-08T17:52:06.972Z,97701.09
2022-12-08T17:54:35.867Z,97700.94
2022-12-08T17:57:03.995Z,97702.31
2022-12-08T17:59:32.020Z,97698.66
2022-12-08T18:01:59.873Z,97684.56
2022-12-08T18:04:29.223Z,97696.59
2022-12-08T18:06:59.350Z,97679.84
2022-12-08T18:09:26.847Z,97688.41
2022-12-08T18:11:54.320Z,97692.00
2022-12-08T18:14:21.924Z,97690.28
2022-12-08T18:16:49.550Z,97681.00
2022-12-08T18:19:17.106Z,97688.59
2022-12-08T18:21:44.949Z,97688.59
2022-12-08T18:24:23.450Z,97675.53
2022-12-08T18:26:52.595Z,97675.63
2022-12-08T18:29:22.414Z,97678.63
2022-12-08T18:31:51.523Z,97681.63
2022-12-08T18:34:19.132Z,97670.66
2022-12-08T18:36:47.121Z,97665.09
2022-12-08T18:39:30.562Z,97660.06
2022-12-08T18:42:02.603Z,97652.91
2022-12-08T18:44:29.978Z,97660.53
2022-12-08T18:46:58.207Z,97660.91
2022-12-08T18:49:26.470Z,97657.56
2022-12-08T18:51:53.892Z,97655.31
2022-12-08T18:54:27.661Z,97657.06
2022-12-08T18:57:06.400Z,97650.03
2022-12-08T18:59:33.903Z,97652.38
2022-12-08T19:02:01.379Z,97641.28
2022-12-08T19:04:29.529Z,97651.91
2022-12-08T19:06:58.102Z,97652.84
2022-12-08T19:09:26.920Z,97640.78
2022-12-08T19:11:55.527Z,97633.56
2022-12-08T19:14:28.114Z,97634.47
2022-12-08T19:16:59.756Z,97641.88
2022-12-08T19:19:28.256Z,97644.88
2022-12-08T19:21:56.379Z,97638.69
2022-12-08T19:24:25.261Z,97637.56
2022-12-08T19:26:53.374Z,97636.53
2022-12-08T19:29:20.932Z,97628.56
2022-12-08T19:31:48.382Z,97619.69
2022-12-08T19:34:15.850Z,97619.16
2022-12-08T19:36:43.624Z,97622.69
2022-12-08T19:40:01.023Z,97616.97
2022-12-08T19:42:46.919Z,97612.09
2022-12-08T19:45:22.110Z,97610.63
2022-12-08T19:47:50.611Z,97619.16
2022-12-08T19:50:36.683Z,97616.34
2022-12-08T19:53:15.553Z,97600.69
2022-12-08T19:55:44.374Z,97620.88
2022-12-08T19:58:11.895Z,97612.06
2022-12-08T20:00:41.280Z,97601.66
2022-12-08T20:03:09.041Z,97608.66
2022-12-08T20:05:37.330Z,97607.72
2022-12-08T20:08:05.184Z,97602.81
2022-12-08T20:10:38.825Z,97600.25
2022-12-08T20:13:27.251Z,97601.22
2022-12-08T20:15:55.064Z,97618.41
2022-12-08T20:18:22.688Z,97612.72
2022-12-08T20:20:50.297Z,97617.44
2022-12-08T20:23:17.969Z,97608.88
2022-12-08T20:25:47.759Z,97615.81
2022-12-08T20:28:15.601Z,97620.72
2022-12-08T20:30:46.788Z,97610.25
2022-12-08T20:33:19.473Z,97613.72
2022-12-08T20:35:47.810Z,97607.72
